Denver, Colorado
Current Conditions -  °F | °C
As of 4:58 PM on Tuesday 21 Oct 2014 (Local Time) from KBKF Reporting Station
Broken Clouds Broken Clouds  
Wind Chill: 66°   Ceiling: 14000
Heat Index: 66°   Visibility: 10mi
Dew Point: 41°   Wind: 7mph
Humidity: 39%   Direction: 80°E
Pressure: 29.93"   Gusts: NA
Location:  39.74°N, 104.99°W
Report Text: KBKF 212258Z 08006KT 10SM SCT080 BKN140 BKN220 19/05 A2993 RMK AO2A PK WND 17027/17 SLP080 T01910048
Loading
Personal Weather Stations






























Interactive Weather Map
Tropical Storm Tracking
New forecast layout! Learn more

10-Day Weather Forecast

Advertisements
Track Severe Weather on mobile